createdAt,value
2018-04-15T00:12:23.112Z,0.00
2018-04-15T00:13:23.048Z,0.00
2018-04-15T00:14:22.996Z,0.00
2018-04-15T00:15:22.945Z,0.00
2018-04-15T00:16:22.901Z,0.00
2018-04-15T00:17:22.854Z,0.00
2018-04-15T00:18:22.805Z,0.00
2018-04-15T00:19:22.759Z,0.00
2018-04-15T00:20:22.712Z,0.00
2018-04-15T00:21:22.679Z,0.00
2018-04-15T00:22:22.619Z,0.00
2018-04-15T00:23:22.574Z,0.00
2018-04-15T00:24:22.530Z,0.00
2018-04-15T00:25:22.487Z,0.00
2018-04-15T00:26:22.438Z,0.00
2018-04-15T00:27:22.394Z,0.00
2018-04-15T00:28:22.354Z,0.00
2018-04-15T00:29:22.304Z,0.00
2018-04-15T00:30:22.269Z,0.00
2018-04-15T00:31:22.247Z,0.00
2018-04-15T00:32:22.175Z,0.00
2018-04-15T00:33:22.124Z,0.00
2018-04-15T00:34:22.086Z,0.00
2018-04-15T00:35:22.034Z,0.00
2018-04-15T00:36:21.996Z,0.00
2018-04-15T00:37:21.946Z,0.00
2018-04-15T00:38:31.177Z,0.00
2018-04-15T00:40:15.207Z,0.00
2018-04-15T00:42:36.113Z,0.00
2018-04-15T00:43:36.070Z,0.00
2018-04-15T00:44:36.021Z,0.00
2018-04-15T00:45:35.981Z,0.00
2018-04-15T00:46:35.930Z,0.00
2018-04-15T00:47:35.894Z,0.00
2018-04-15T00:48:35.841Z,0.00
2018-04-15T00:49:35.806Z,0.00
2018-04-15T00:50:35.749Z,0.00
2018-04-15T00:51:35.718Z,0.00
2018-04-15T00:52:35.666Z,0.00
2018-04-15T00:53:35.622Z,0.00
2018-04-15T00:54:35.572Z,0.00
2018-04-15T00:55:35.533Z,0.00
2018-04-15T00:56:35.484Z,0.00
2018-04-15T00:57:35.446Z,0.00
2018-04-15T00:58:35.399Z,0.00
2018-04-15T00:59:35.354Z,0.00
2018-04-15T01:00:35.309Z,0.00
2018-04-15T01:01:35.266Z,0.00
2018-04-15T01:02:35.222Z,0.00
2018-04-15T01:03:35.179Z,0.00
2018-04-15T01:04:35.134Z,0.00
2018-04-15T01:05:35.088Z,0.00
2018-04-15T01:06:35.045Z,0.00
2018-04-15T01:07:35.001Z,0.00
2018-04-15T01:08:34.959Z,0.00
2018-04-15T01:09:34.912Z,0.00
2018-04-15T01:10:34.874Z,0.00
2018-04-15T01:11:34.824Z,0.00
2018-04-15T01:12:34.782Z,0.00
2018-04-15T01:13:34.735Z,0.00
2018-04-15T01:14:34.689Z,0.00
2018-04-15T01:15:34.648Z,0.00
2018-04-15T01:16:34.602Z,0.00
2018-04-15T01:17:34.557Z,0.00
2018-04-15T01:18:34.511Z,0.00
2018-04-15T01:19:34.472Z,0.00
2018-04-15T01:20:34.426Z,0.00
2018-04-15T01:21:34.380Z,0.00
2018-04-15T01:22:34.339Z,0.00
2018-04-15T01:23:34.291Z,0.00
2018-04-15T01:24:34.247Z,0.00
2018-04-15T01:25:34.201Z,0.00
2018-04-15T01:26:34.157Z,0.00
2018-04-15T01:27:34.112Z,0.00
2018-04-15T01:28:34.073Z,0.00
2018-04-15T01:29:34.023Z,0.00
2018-04-15T01:30:33.979Z,0.00
2018-04-15T01:31:33.936Z,0.00
2018-04-15T01:32:33.902Z,0.00
2018-04-15T01:33:33.852Z,0.00
2018-04-15T01:34:33.806Z,0.00
2018-04-15T01:35:33.765Z,0.00
2018-04-15T01:36:33.722Z,0.00
2018-04-15T01:37:33.676Z,0.00
2018-04-15T01:38:33.635Z,0.00
2018-04-15T01:39:33.582Z,0.00
2018-04-15T01:40:33.538Z,0.00
2018-04-15T01:41:33.494Z,0.00
2018-04-15T01:42:33.448Z,0.00
2018-04-15T01:43:33.407Z,0.00
2018-04-15T01:44:33.359Z,0.00
2018-04-15T01:45:33.316Z,0.00
2018-04-15T01:46:33.276Z,0.00
2018-04-15T01:47:33.231Z,0.00
2018-04-15T01:48:33.190Z,0.00
2018-04-15T01:49:33.137Z,0.00
2018-04-15T01:50:33.092Z,0.00
2018-04-15T01:51:33.050Z,0.00
2018-04-15T01:52:33.007Z,0.00
2018-04-15T01:53:32.968Z,0.00
2018-04-15T01:54:32.920Z,0.00
2018-04-15T01:55:32.872Z,0.00
2018-04-15T01:56:32.835Z,0.00
2018-04-15T01:57:32.783Z,0.00
2018-04-15T01:58:32.741Z,0.00
2018-04-15T01:59:32.699Z,0.00
2018-04-15T02:00:32.651Z,0.00
2018-04-15T02:01:32.613Z,0.00
2018-04-15T02:02:32.567Z,0.00
2018-04-15T02:03:32.517Z,0.00
2018-04-15T02:04:32.474Z,0.00
2018-04-15T02:05:32.428Z,0.00
2018-04-15T02:06:32.394Z,0.00
2018-04-15T02:07:32.339Z,0.00
2018-04-15T02:08:32.299Z,0.00
2018-04-15T02:09:32.251Z,0.00
2018-04-15T02:10:32.212Z,0.00
2018-04-15T02:11:32.167Z,0.00
2018-04-15T02:12:32.118Z,0.00
2018-04-15T02:13:32.081Z,0.00
2018-04-15T02:14:32.036Z,0.00
2018-04-15T02:15:32.044Z,0.00
2018-04-15T02:16:31.948Z,0.00
2018-04-15T02:17:31.916Z,0.00
2018-04-15T02:18:31.854Z,0.00
2018-04-15T02:19:31.813Z,0.00
2018-04-15T02:20:31.763Z,0.00
2018-04-15T02:21:31.726Z,0.00
2018-04-15T02:22:31.674Z,0.00
2018-04-15T02:23:31.636Z,0.00
2018-04-15T02:24:31.585Z,0.00
2018-04-15T02:25:31.550Z,0.00
2018-04-15T02:26:31.501Z,0.00
2018-04-15T02:27:31.456Z,0.00
2018-04-15T02:28:31.412Z,0.00
2018-04-15T02:29:31.368Z,0.00
2018-04-15T02:30:31.317Z,0.00
2018-04-15T02:31:31.280Z,0.00
2018-04-15T02:32:31.237Z,0.00
2018-04-15T02:33:31.192Z,0.00
2018-04-15T02:34:31.149Z,0.00
2018-04-15T02:35:31.106Z,0.00
2018-04-15T02:36:31.057Z,0.00
2018-04-15T02:37:31.013Z,0.00
2018-04-15T02:38:30.973Z,0.00
2018-04-15T02:39:30.925Z,0.00
2018-04-15T02:40:30.881Z,0.00
2018-04-15T02:41:30.837Z,0.00
2018-04-15T02:42:30.788Z,0.00
2018-04-15T02:43:30.748Z,0.00
2018-04-15T02:44:30.702Z,0.00
2018-04-15T02:45:30.659Z,0.00
2018-04-15T02:46:30.610Z,0.00
2018-04-15T02:47:30.569Z,0.00
2018-04-15T02:48:30.523Z,0.00
2018-04-15T02:49:30.488Z,0.00
2018-04-15T02:50:30.436Z,0.00
2018-04-15T02:51:30.397Z,0.00
2018-04-15T02:52:30.348Z,0.00
2018-04-15T02:53:30.303Z,0.00
2018-04-15T02:54:30.262Z,0.00
2018-04-15T02:55:30.215Z,0.00
2018-04-15T02:56:30.169Z,0.00
2018-04-15T02:57:30.129Z,0.00
2018-04-15T02:58:30.083Z,0.00
2018-04-15T02:59:30.038Z,0.00
2018-04-15T03:00:29.991Z,0.00
2018-04-15T03:01:29.950Z,0.00
2018-04-15T03:02:29.970Z,0.00
2018-04-15T03:03:29.860Z,0.00
2018-04-15T03:04:29.815Z,0.00
2018-04-15T03:05:29.771Z,0.00
2018-04-15T03:06:29.725Z,0.00
2018-04-15T03:07:29.683Z,0.00
2018-04-15T03:08:29.635Z,0.00
2018-04-15T03:09:29.593Z,0.00
2018-04-15T03:10:29.544Z,0.00
2018-04-15T03:11:29.506Z,0.00
2018-04-15T03:12:29.456Z,0.00
2018-04-15T03:13:29.417Z,0.00
2018-04-15T03:14:29.372Z,0.00
2018-04-15T03:15:29.327Z,0.00
2018-04-15T03:16:29.285Z,0.00
2018-04-15T03:17:29.239Z,0.00
2018-04-15T03:18:29.194Z,0.00
2018-04-15T03:19:29.153Z,0.00
2018-04-15T03:20:29.104Z,0.00
2018-04-15T03:21:29.063Z,0.00
2018-04-15T03:22:29.014Z,0.00
2018-04-15T03:23:28.974Z,0.00
2018-04-15T03:24:28.925Z,0.00
2018-04-15T03:25:28.886Z,0.00
2018-04-15T03:26:28.843Z,0.00
2018-04-15T03:27:28.796Z,0.00
2018-04-15T03:28:28.748Z,0.00
2018-04-15T03:29:28.706Z,0.00
2018-04-15T03:30:28.668Z,0.00
2018-04-15T03:31:28.621Z,0.00
2018-04-15T03:32:28.574Z,0.00
2018-04-15T03:33:28.528Z,0.00
2018-04-15T03:34:28.483Z,0.00
2018-04-15T03:35:28.456Z,0.00
2018-04-15T03:36:28.391Z,0.00
2018-04-15T03:37:28.352Z,0.00
2018-04-15T03:38:28.314Z,0.00
2018-04-15T03:39:28.263Z,0.00
2018-04-15T03:40:28.215Z,0.00
2018-04-15T03:41:28.175Z,0.00
2018-04-15T03:42:28.128Z,0.00
2018-04-15T03:43:28.084Z,0.00
2018-04-15T03:44:28.042Z,0.00
2018-04-15T03:45:27.995Z,0.00
2018-04-15T03:46:27.951Z,0.00
2018-04-15T03:47:27.906Z,0.00
2018-04-15T03:48:27.860Z,0.00
2018-04-15T03:49:27.818Z,0.00
2018-04-15T03:50:27.797Z,0.00
2018-04-15T03:51:27.729Z,0.00
2018-04-15T03:52:27.689Z,0.00
2018-04-15T03:53:27.641Z,0.00
2018-04-15T03:54:27.614Z,0.00
2018-04-15T03:55:27.554Z,0.00
2018-04-15T03:56:27.506Z,0.00
2018-04-15T03:57:27.464Z,0.00
2018-04-15T03:58:27.415Z,0.00
2018-04-15T03:59:27.376Z,0.00
2018-04-15T04:00:27.331Z,0.00
2018-04-15T04:01:27.290Z,0.00
2018-04-15T04:02:27.240Z,0.00
2018-04-15T04:03:27.197Z,0.00
2018-04-15T04:04:27.153Z,0.00
2018-04-15T04:05:27.114Z,0.00
2018-04-15T04:06:27.061Z,0.00
2018-04-15T04:07:27.021Z,0.00
2018-04-15T04:08:26.976Z,0.00
2018-04-15T04:09:26.928Z,0.00
2018-04-15T04:10:26.883Z,0.00
2018-04-15T04:11:26.879Z,0.00
2018-04-15T04:12:26.796Z,0.00
2018-04-15T04:13:26.753Z,0.00
2018-04-15T04:14:26.709Z,0.00
2018-04-15T04:15:26.666Z,0.00
2018-04-15T04:16:26.620Z,0.00
2018-04-15T04:17:26.588Z,0.00
2018-04-15T04:18:26.527Z,0.00
2018-04-15T04:19:26.489Z,0.00
2018-04-15T04:20:26.474Z,0.00
2018-04-15T04:21:26.399Z,0.00
2018-04-15T04:22:26.354Z,0.00
2018-04-15T04:23:26.312Z,0.00
2018-04-15T04:24:26.261Z,0.00
2018-04-15T04:25:26.221Z,0.00
2018-04-15T04:26:26.173Z,0.00
2018-04-15T04:27:26.144Z,0.00
2018-04-15T04:28:26.089Z,0.00
2018-04-15T04:29:26.044Z,0.00
2018-04-15T04:30:26.000Z,0.00
2018-04-15T04:31:25.957Z,0.00
2018-04-15T04:32:25.925Z,0.00
2018-04-15T04:33:25.872Z,0.00
2018-04-15T04:34:25.834Z,0.00
2018-04-15T04:35:25.781Z,0.00
2018-04-15T04:36:25.730Z,0.00
2018-04-15T04:37:25.690Z,0.00
2018-04-15T04:38:25.644Z,0.00
2018-04-15T04:39:25.600Z,0.00
2018-04-15T04:40:25.559Z,0.00
2018-04-15T04:41:25.513Z,0.00
2018-04-15T04:42:25.462Z,0.00
2018-04-15T04:43:25.424Z,0.00
2018-04-15T04:44:25.380Z,0.00
2018-04-15T04:45:25.333Z,0.00
2018-04-15T04:46:25.285Z,0.00
2018-04-15T04:47:25.248Z,0.00
2018-04-15T04:48:25.197Z,0.00
2018-04-15T04:49:25.156Z,0.00
2018-04-15T04:50:25.108Z,0.00
2018-04-15T04:51:25.068Z,0.00
2018-04-15T04:52:25.031Z,0.00
2018-04-15T04:53:24.977Z,0.00
2018-04-15T04:54:24.939Z,0.00
2018-04-15T04:55:24.895Z,0.00
2018-04-15T04:56:24.851Z,0.00
2018-04-15T04:57:24.801Z,0.00
2018-04-15T04:58:24.758Z,0.00
2018-04-15T04:59:24.714Z,0.00
2018-04-15T05:00:24.667Z,0.00
2018-04-15T05:01:24.624Z,0.00
2018-04-15T05:02:24.584Z,0.00
2018-04-15T05:03:24.542Z,0.00
2018-04-15T05:04:24.494Z,0.00
2018-04-15T05:05:24.450Z,0.00
2018-04-15T05:06:24.410Z,0.00
2018-04-15T05:07:24.362Z,0.00
2018-04-15T05:08:24.320Z,0.00
2018-04-15T05:09:24.269Z,0.00
2018-04-15T05:10:24.225Z,0.00
2018-04-15T05:11:24.184Z,0.00
2018-04-15T05:12:24.135Z,0.00
2018-04-15T05:13:24.111Z,0.00
2018-04-15T05:14:24.049Z,0.00
2018-04-15T05:15:24.007Z,0.00
2018-04-15T05:16:23.958Z,0.00
2018-04-15T05:17:23.917Z,4.00
2018-04-15T05:18:23.869Z,4.00
2018-04-15T05:19:23.827Z,4.00
2018-04-15T05:20:23.782Z,4.00
2018-04-15T05:21:23.736Z,4.00
2018-04-15T05:22:23.692Z,4.00
2018-04-15T05:23:23.649Z,4.00
2018-04-15T05:24:23.635Z,4.00
2018-04-15T05:25:23.562Z,4.00
2018-04-15T05:26:23.511Z,4.00
2018-04-15T05:27:23.471Z,4.00
2018-04-15T05:28:23.423Z,4.00
2018-04-15T05:29:23.381Z,4.00
2018-04-15T05:30:23.355Z,4.00
2018-04-15T05:31:23.293Z,4.00
2018-04-15T05:32:23.248Z,4.00
2018-04-15T05:33:23.208Z,4.00
2018-04-15T05:34:23.161Z,4.00
2018-04-15T05:35:23.117Z,4.00
2018-04-15T05:36:23.074Z,4.00
2018-04-15T05:37:23.026Z,4.00
2018-04-15T05:38:22.980Z,4.00
2018-04-15T05:39:22.941Z,0.00
2018-04-15T05:40:22.900Z,0.00
2018-04-15T05:41:22.848Z,0.00
2018-04-15T05:42:22.803Z,0.00
2018-04-15T05:43:22.762Z,0.00
2018-04-15T05:44:22.736Z,0.00
2018-04-15T05:45:22.672Z,0.00
2018-04-15T05:46:22.629Z,0.00
2018-04-15T05:47:22.580Z,4.00
2018-04-15T05:48:22.537Z,4.00
2018-04-15T05:49:22.490Z,4.00
2018-04-15T05:50:22.452Z,0.00
2018-04-15T05:51:22.399Z,0.00
2018-04-15T05:52:22.358Z,4.00
2018-04-15T05:53:22.325Z,4.00
2018-04-15T05:54:22.285Z,4.00
2018-04-15T05:55:22.225Z,4.00
2018-04-15T05:56:22.180Z,4.00
2018-04-15T05:57:22.134Z,8.00
2018-04-15T05:58:22.094Z,4.00
2018-04-15T05:59:22.045Z,8.00
2018-04-15T06:00:22.005Z,4.00
2018-04-15T06:01:21.956Z,8.00
2018-04-15T06:02:21.911Z,4.00
2018-04-15T06:03:21.869Z,8.00
2018-04-15T06:04:21.827Z,4.00
2018-04-15T06:05:21.816Z,12.00
2018-04-15T06:06:21.733Z,12.00
2018-04-15T06:07:21.694Z,4.00
2018-04-15T06:08:21.648Z,8.00
2018-04-15T06:09:21.600Z,8.00
2018-04-15T06:10:21.563Z,8.00
2018-04-15T06:11:21.517Z,8.00
2018-04-15T06:12:21.466Z,16.00
2018-04-15T06:13:21.439Z,20.00
2018-04-15T06:14:21.384Z,16.00
2018-04-15T06:15:21.342Z,20.00
2018-04-15T06:16:21.291Z,16.00
2018-04-15T06:17:21.245Z,20.00
2018-04-15T06:18:21.199Z,24.00
2018-04-15T06:19:21.160Z,20.00
2018-04-15T06:20:21.113Z,20.00
2018-04-15T06:21:21.066Z,20.00
2018-04-15T06:22:21.030Z,24.00
2018-04-15T06:23:20.992Z,24.00
2018-04-15T06:24:20.938Z,28.00
2018-04-15T06:25:20.888Z,28.00
2018-04-15T06:26:20.845Z,24.00
2018-04-15T06:27:20.799Z,28.00
2018-04-15T06:28:20.756Z,28.00
2018-04-15T06:29:20.712Z,28.00
2018-04-15T06:30:20.669Z,28.00
2018-04-15T06:31:20.629Z,32.00
2018-04-15T06:32:20.593Z,28.00
2018-04-15T06:33:20.550Z,28.00
2018-04-15T06:34:20.492Z,32.00
2018-04-15T06:35:20.445Z,28.00
2018-04-15T06:36:20.400Z,32.00
2018-04-15T06:37:20.355Z,32.00
2018-04-15T06:38:20.311Z,32.00
2018-04-15T06:39:20.265Z,32.00
2018-04-15T06:40:20.226Z,32.00
2018-04-15T06:41:20.179Z,32.00
2018-04-15T06:42:20.134Z,36.00
2018-04-15T06:43:20.090Z,32.00
2018-04-15T06:44:20.045Z,32.00
2018-04-15T06:45:20.042Z,32.00
2018-04-15T06:46:19.956Z,32.00
2018-04-15T06:47:19.923Z,32.00
2018-04-15T06:48:19.869Z,36.00
2018-04-15T06:49:19.876Z,32.00
2018-04-15T06:50:19.779Z,32.00
2018-04-15T06:51:19.739Z,32.00
2018-04-15T06:52:19.692Z,36.00
2018-04-15T06:53:19.645Z,36.00
2018-04-15T06:54:19.600Z,28.00
2018-04-15T06:55:19.564Z,28.00
2018-04-15T06:56:19.515Z,20.00
2018-04-15T06:57:19.479Z,28.00
2018-04-15T06:58:19.425Z,28.00
2018-04-15T06:59:19.386Z,28.00
2018-04-15T07:00:19.335Z,32.00
2018-04-15T07:01:19.287Z,24.00
2018-04-15T07:02:19.252Z,32.00
2018-04-15T07:03:19.206Z,32.00
2018-04-15T07:04:19.161Z,24.00
2018-04-15T07:05:19.119Z,36.00
2018-04-15T07:06:19.089Z,36.00
2018-04-15T07:07:19.028Z,32.00
2018-04-15T07:08:18.988Z,36.00
2018-04-15T07:09:18.940Z,36.00
2018-04-15T07:10:18.892Z,32.00
2018-04-15T07:11:18.852Z,32.00
2018-04-15T07:12:18.811Z,28.00
2018-04-15T07:13:18.766Z,24.00
2018-04-15T07:14:18.723Z,28.00
2018-04-15T07:15:18.674Z,32.00
2018-04-15T07:16:18.636Z,28.00
2018-04-15T07:17:18.587Z,36.00
2018-04-15T07:18:18.548Z,36.00
2018-04-15T07:19:18.511Z,20.00
2018-04-15T07:20:18.468Z,24.00
2018-04-15T07:21:18.414Z,20.00
2018-04-15T07:22:18.366Z,20.00
2018-04-15T07:23:18.326Z,32.00
2018-04-15T07:24:18.277Z,24.00
2018-04-15T07:25:18.243Z,20.00
2018-04-15T07:26:18.190Z,16.00
2018-04-15T07:27:18.142Z,12.00
2018-04-15T07:28:18.102Z,16.00
2018-04-15T07:29:18.061Z,12.00
2018-04-15T07:30:18.015Z,16.00
2018-04-15T07:31:17.973Z,16.00
2018-04-15T07:32:17.920Z,16.00
2018-04-15T07:33:17.881Z,16.00
2018-04-15T07:34:17.840Z,16.00
2018-04-15T07:35:17.794Z,12.00
2018-04-15T07:36:17.750Z,12.00
2018-04-15T07:37:17.707Z,12.00
2018-04-15T07:38:17.660Z,16.00
2018-04-15T07:39:17.615Z,16.00
2018-04-15T07:40:17.569Z,12.00
2018-04-15T07:41:17.528Z,16.00
2018-04-15T07:42:17.480Z,16.00
2018-04-15T07:43:17.442Z,16.00
2018-04-15T07:44:17.393Z,16.00
2018-04-15T07:45:17.350Z,16.00
2018-04-15T07:46:17.315Z,16.00
2018-04-15T07:47:17.263Z,16.00
2018-04-15T07:48:17.215Z,20.00
2018-04-15T07:49:17.170Z,20.00
2018-04-15T07:50:17.152Z,32.00
2018-04-15T07:51:17.084Z,24.00
2018-04-15T07:52:17.039Z,28.00
2018-04-15T07:53:17.003Z,24.00
2018-04-15T07:54:16.981Z,20.00
2018-04-15T07:55:16.906Z,20.00
2018-04-15T07:56:16.888Z,20.00
2018-04-15T07:57:16.822Z,20.00
2018-04-15T07:58:16.781Z,16.00
2018-04-15T07:59:16.734Z,16.00
2018-04-15T08:00:16.685Z,16.00
2018-04-15T08:01:16.640Z,20.00
2018-04-15T08:02:16.606Z,20.00
2018-04-15T08:03:16.571Z,20.00
2018-04-15T08:04:16.528Z,16.00
2018-04-15T08:05:16.467Z,16.00
2018-04-15T08:06:16.421Z,20.00
2018-04-15T08:07:16.373Z,16.00
2018-04-15T08:08:16.337Z,20.00
2018-04-15T08:09:16.302Z,28.00
2018-04-15T08:10:16.247Z,28.00
2018-04-15T08:11:16.201Z,28.00
2018-04-15T08:12:16.157Z,32.00
2018-04-15T08:13:16.111Z,24.00
2018-04-15T08:14:16.064Z,32.00
2018-04-15T08:15:16.020Z,36.00
2018-04-15T08:16:15.976Z,40.00
2018-04-15T08:17:15.957Z,32.00
2018-04-15T08:18:15.888Z,36.00
2018-04-15T08:19:15.849Z,40.00
2018-04-15T08:20:15.798Z,36.00
2018-04-15T08:21:15.754Z,28.00
2018-04-15T08:22:15.724Z,20.00
2018-04-15T08:23:15.675Z,24.00
2018-04-15T08:24:15.625Z,40.00
2018-04-15T08:25:15.617Z,32.00
2018-04-15T08:26:15.538Z,40.00
2018-04-15T08:27:15.530Z,40.00
2018-04-15T08:28:15.447Z,24.00
2018-04-15T08:29:15.405Z,40.00
2018-04-15T08:31:47.958Z,40.00
2018-04-15T08:32:47.890Z,40.00
2018-04-15T08:33:47.844Z,36.00
2018-04-15T08:34:47.800Z,32.00
2018-04-15T08:35:47.769Z,40.00
2018-04-15T08:36:47.709Z,40.00
2018-04-15T08:37:47.678Z,40.00
2018-04-15T08:38:47.633Z,40.00
2018-04-15T08:39:47.590Z,40.00
2018-04-15T08:40:47.536Z,40.00
2018-04-15T08:41:47.493Z,40.00
2018-04-15T08:42:47.450Z,40.00
2018-04-15T08:43:47.402Z,44.00
2018-04-15T08:44:47.361Z,40.00
2018-04-15T08:45:47.325Z,44.00
2018-04-15T08:46:47.275Z,40.00
2018-04-15T08:47:47.227Z,40.00
2018-04-15T08:48:47.189Z,40.00
2018-04-15T08:49:47.138Z,40.00
2018-04-15T08:50:47.106Z,40.00
2018-04-15T08:51:47.058Z,40.00
2018-04-15T08:52:47.007Z,40.00
2018-04-15T08:53:46.968Z,40.00
2018-04-15T08:54:46.918Z,44.00
2018-04-15T08:55:46.895Z,40.00
2018-04-15T08:56:46.834Z,40.00
2018-04-15T08:57:46.797Z,40.00
2018-04-15T08:58:46.742Z,44.00
2018-04-15T08:59:46.706Z,40.00
2018-04-15T09:00:46.655Z,40.00
2018-04-15T09:01:46.618Z,40.00
2018-04-15T09:02:46.568Z,40.00
2018-04-15T09:03:46.550Z,40.00
2018-04-15T09:04:46.509Z,40.00
2018-04-15T09:05:46.442Z,40.00
2018-04-15T09:06:46.387Z,40.00
2018-04-15T09:07:46.360Z,40.00
2018-04-15T09:08:46.296Z,40.00
2018-04-15T09:09:46.303Z,40.00
2018-04-15T09:10:46.226Z,36.00
2018-04-15T09:11:46.168Z,36.00
2018-04-15T09:12:46.129Z,40.00
2018-04-15T09:13:46.083Z,36.00
2018-04-15T09:14:46.051Z,36.00
2018-04-15T09:15:45.991Z,36.00
2018-04-15T09:16:45.949Z,20.00
2018-04-15T09:17:45.908Z,28.00
2018-04-15T09:18:45.886Z,24.00
2018-04-15T09:19:45.823Z,20.00
2018-04-15T09:20:45.769Z,24.00
2018-04-15T09:21:45.735Z,24.00
2018-04-15T09:22:45.681Z,20.00
2018-04-15T09:23:45.644Z,20.00
2018-04-15T09:24:45.590Z,24.00
2018-04-15T09:25:45.563Z,20.00
2018-04-15T09:26:45.506Z,28.00
2018-04-15T09:27:45.477Z,24.00
2018-04-15T09:28:45.421Z,20.00
2018-04-15T09:29:45.382Z,24.00
2018-04-15T09:30:45.330Z,32.00
2018-04-15T09:31:45.295Z,24.00
2018-04-15T09:32:45.241Z,28.00
2018-04-15T09:33:45.201Z,20.00
2018-04-15T09:34:45.156Z,16.00
2018-04-15T09:35:45.109Z,20.00
2018-04-15T09:36:45.068Z,20.00
2018-04-15T09:37:45.022Z,20.00
2018-04-15T09:38:44.972Z,28.00
2018-04-15T09:39:44.942Z,28.00
2018-04-15T09:40:44.887Z,24.00
2018-04-15T09:41:44.866Z,28.00
2018-04-15T09:42:44.800Z,28.00
2018-04-15T09:43:44.779Z,20.00
2018-04-15T09:44:44.711Z,24.00
2018-04-15T09:45:44.686Z,20.00
2018-04-15T09:46:44.625Z,28.00
2018-04-15T09:47:44.593Z,28.00
2018-04-15T09:48:44.533Z,28.00
2018-04-15T09:49:44.494Z,32.00
2018-04-15T09:50:44.446Z,28.00
2018-04-15T09:51:44.404Z,28.00
2018-04-15T09:52:44.363Z,28.00
2018-04-15T09:53:44.318Z,28.00
2018-04-15T09:54:44.276Z,28.00
2018-04-15T09:55:44.224Z,24.00
2018-04-15T09:56:44.177Z,28.00
2018-04-15T09:57:44.142Z,24.00
2018-04-15T09:58:44.104Z,28.00
2018-04-15T09:59:44.054Z,24.00
2018-04-15T10:00:44.001Z,24.00
2018-04-15T10:01:43.960Z,24.00
2018-04-15T10:02:43.921Z,24.00
2018-04-15T10:03:43.871Z,20.00
2018-04-15T10:04:43.824Z,24.00
2018-04-15T10:05:43.785Z,24.00
2018-04-15T10:06:43.761Z,24.00
2018-04-15T10:07:43.704Z,24.00
2018-04-15T10:08:43.650Z,24.00
2018-04-15T10:09:43.606Z,24.00
2018-04-15T10:10:43.571Z,24.00
2018-04-15T10:11:43.520Z,20.00
2018-04-15T10:12:43.477Z,24.00
2018-04-15T10:13:43.431Z,24.00
2018-04-15T10:14:43.387Z,24.00
2018-04-15T10:15:43.387Z,20.00
2018-04-15T10:16:43.300Z,20.00
2018-04-15T10:17:43.253Z,20.00
2018-04-15T10:18:43.213Z,20.00
2018-04-15T10:19:43.171Z,20.00
2018-04-15T10:20:43.123Z,20.00
2018-04-15T10:21:43.079Z,20.00
2018-04-15T10:22:43.031Z,20.00
2018-04-15T10:23:42.991Z,20.00
2018-04-15T10:24:42.950Z,16.00
2018-04-15T10:25:42.903Z,16.00
2018-04-15T10:26:42.853Z,20.00
2018-04-15T10:27:42.829Z,16.00
2018-04-15T10:28:42.770Z,20.00
2018-04-15T10:29:42.727Z,20.00
2018-04-15T10:30:42.683Z,20.00
2018-04-15T10:31:42.640Z,20.00
2018-04-15T10:32:42.618Z,20.00
2018-04-15T10:33:42.549Z,20.00
2018-04-15T10:34:42.508Z,16.00
2018-04-15T10:35:42.458Z,16.00
2018-04-15T10:36:42.417Z,20.00
2018-04-15T10:37:42.376Z,16.00
2018-04-15T10:38:42.359Z,16.00
2018-04-15T10:39:42.309Z,16.00
2018-04-15T10:40:42.243Z,16.00
2018-04-15T10:41:42.204Z,16.00
2018-04-15T10:42:42.161Z,12.00
2018-04-15T10:43:42.110Z,16.00
2018-04-15T10:44:42.061Z,20.00
2018-04-15T10:45:42.025Z,20.00
2018-04-15T10:46:41.975Z,16.00
2018-04-15T10:47:41.943Z,16.00
2018-04-15T10:48:41.891Z,16.00
2018-04-15T10:49:41.848Z,16.00
2018-04-15T10:50:41.811Z,16.00
2018-04-15T10:51:41.759Z,16.00
2018-04-15T10:52:41.718Z,16.00
2018-04-15T10:53:41.668Z,12.00
2018-04-15T10:54:41.678Z,16.00
2018-04-15T10:55:41.579Z,16.00
2018-04-15T10:56:41.535Z,12.00
2018-04-15T10:57:41.493Z,16.00
2018-04-15T10:58:41.452Z,12.00
2018-04-15T10:59:41.423Z,12.00
2018-04-15T11:00:41.355Z,16.00
2018-04-15T11:01:41.329Z,16.00
2018-04-15T11:02:41.278Z,16.00
2018-04-15T11:03:41.228Z,12.00
2018-04-15T11:04:41.182Z,16.00
2018-04-15T11:05:41.152Z,16.00
2018-04-15T11:06:41.096Z,16.00
2018-04-15T11:07:41.047Z,16.00
2018-04-15T11:08:41.004Z,12.00
2018-04-15T11:09:40.965Z,12.00
2018-04-15T11:10:40.945Z,12.00
2018-04-15T11:11:40.886Z,16.00
2018-04-15T11:12:40.840Z,12.00
2018-04-15T11:13:40.786Z,12.00
2018-04-15T11:14:40.743Z,16.00
2018-04-15T11:15:40.701Z,16.00
2018-04-15T11:16:40.660Z,16.00
2018-04-15T11:17:40.612Z,16.00
2018-04-15T11:18:40.563Z,16.00
2018-04-15T11:19:40.527Z,16.00
2018-04-15T11:20:40.483Z,16.00
2018-04-15T11:21:40.437Z,16.00
2018-04-15T11:22:40.392Z,12.00
2018-04-15T11:23:40.351Z,12.00
2018-04-15T11:24:40.301Z,12.00
2018-04-15T11:25:40.261Z,12.00
2018-04-15T11:26:40.212Z,16.00
2018-04-15T11:27:40.188Z,12.00
2018-04-15T11:28:40.141Z,12.00
2018-04-15T11:29:40.081Z,12.00
2018-04-15T11:30:40.039Z,12.00
2018-04-15T11:31:39.995Z,12.00
2018-04-15T11:32:39.947Z,12.00
2018-04-15T11:33:39.908Z,12.00
2018-04-15T11:34:39.858Z,12.00
2018-04-15T11:35:39.865Z,12.00
2018-04-15T11:36:39.810Z,12.00
2018-04-15T11:37:39.739Z,16.00
2018-04-15T11:38:39.690Z,12.00
2018-04-15T11:39:39.699Z,12.00
2018-04-15T11:40:39.593Z,12.00
2018-04-15T11:41:39.550Z,12.00
2018-04-15T11:42:39.546Z,12.00
2018-04-15T11:43:39.465Z,12.00
2018-04-15T11:44:39.425Z,8.00
2018-04-15T11:45:39.377Z,12.00
2018-04-15T11:46:39.337Z,8.00
2018-04-15T11:47:39.294Z,12.00
2018-04-15T11:48:39.246Z,12.00
2018-04-15T11:49:39.202Z,8.00
2018-04-15T11:50:39.154Z,12.00
2018-04-15T11:51:39.232Z,12.00
2018-04-15T11:52:39.076Z,8.00
2018-04-15T11:53:39.086Z,8.00
2018-04-15T11:54:38.994Z,12.00
2018-04-15T11:55:38.933Z,12.00
2018-04-15T11:56:38.897Z,8.00
2018-04-15T11:57:38.843Z,12.00
2018-04-15T11:58:38.804Z,12.00
2018-04-15T11:59:38.762Z,8.00
2018-04-15T12:00:38.710Z,12.00
2018-04-15T12:01:38.668Z,8.00
2018-04-15T12:02:38.623Z,12.00
2018-04-15T12:03:38.578Z,8.00
2018-04-15T12:04:38.586Z,12.00
2018-04-15T12:05:38.549Z,12.00
2018-04-15T12:06:38.449Z,8.00
2018-04-15T12:07:38.501Z,8.00
2018-04-15T12:08:38.379Z,8.00
2018-04-15T12:09:38.315Z,12.00
2018-04-15T12:10:38.294Z,12.00
2018-04-15T12:11:38.232Z,8.00
2018-04-15T12:12:38.183Z,12.00
2018-04-15T12:13:38.153Z,12.00
2018-04-15T12:14:38.098Z,8.00
2018-04-15T12:15:38.050Z,12.00
2018-04-15T12:16:38.005Z,12.00
2018-04-15T12:17:37.960Z,12.00
2018-04-15T12:18:37.919Z,12.00
2018-04-15T12:19:37.873Z,8.00
2018-04-15T12:20:37.830Z,12.00
2018-04-15T12:21:37.786Z,12.00
2018-04-15T12:22:37.744Z,12.00
2018-04-15T12:23:37.698Z,8.00
2018-04-15T12:24:37.653Z,12.00
2018-04-15T12:25:37.611Z,8.00
2018-04-15T12:26:37.569Z,12.00
2018-04-15T12:27:37.522Z,12.00
2018-04-15T12:28:37.485Z,12.00
2018-04-15T12:29:37.435Z,8.00
2018-04-15T12:30:37.412Z,12.00
2018-04-15T12:31:37.368Z,12.00
2018-04-15T12:32:37.314Z,12.00
2018-04-15T12:33:37.263Z,8.00
2018-04-15T12:34:37.221Z,8.00
2018-04-15T12:35:37.209Z,8.00
2018-04-15T12:36:37.128Z,8.00
2018-04-15T12:37:37.084Z,8.00
2018-04-15T12:38:37.045Z,8.00
2018-04-15T12:39:36.992Z,8.00
2018-04-15T12:40:36.957Z,8.00
2018-04-15T12:41:36.924Z,8.00
2018-04-15T12:42:36.863Z,8.00
2018-04-15T12:43:36.824Z,8.00
2018-04-15T12:44:36.774Z,8.00
2018-04-15T12:45:36.732Z,12.00
2018-04-15T12:46:36.697Z,8.00
2018-04-15T12:47:36.647Z,8.00
2018-04-15T12:48:36.596Z,8.00
2018-04-15T12:49:36.554Z,8.00
2018-04-15T12:50:36.512Z,8.00
2018-04-15T12:51:36.465Z,12.00
2018-04-15T12:52:36.421Z,12.00
2018-04-15T12:53:36.408Z,8.00
2018-04-15T12:54:36.333Z,8.00
2018-04-15T12:55:36.292Z,8.00
2018-04-15T12:56:36.244Z,8.00
2018-04-15T12:57:36.215Z,8.00
2018-04-15T12:58:36.167Z,8.00
2018-04-15T12:59:36.132Z,8.00
2018-04-15T13:00:36.070Z,4.00
2018-04-15T13:01:36.030Z,4.00
2018-04-15T13:02:35.989Z,8.00
2018-04-15T13:03:35.947Z,8.00
2018-04-15T13:04:35.893Z,8.00
2018-04-15T13:05:35.852Z,8.00
2018-04-15T13:06:35.802Z,8.00
2018-04-15T13:07:35.759Z,8.00
2018-04-15T13:08:35.723Z,8.00
2018-04-15T13:09:35.681Z,8.00
2018-04-15T13:10:35.630Z,8.00
2018-04-15T13:11:35.582Z,8.00
2018-04-15T13:12:35.538Z,8.00
2018-04-15T13:13:35.501Z,8.00
2018-04-15T13:14:35.454Z,8.00
2018-04-15T13:15:35.410Z,8.00
2018-04-15T13:16:35.362Z,8.00
2018-04-15T13:17:35.320Z,8.00
2018-04-15T13:18:35.285Z,8.00
2018-04-15T13:19:35.232Z,8.00
2018-04-15T13:20:35.193Z,8.00
2018-04-15T13:21:35.183Z,4.00